Airfield :
LOGIN :

Register | Disclaimer

   EN    FR    IT 

 










Legend :    VFR   Marginal VFR   IFR   Intensive IFR   Very Intensive IFR
Visi :
Ceiling :
>= 8 km
>= 3000ft
5 to 8 km
1000 to 3000 ft
1500m to 5 km
500 to 1000 ft
800 to 1500m
200 to 500 ft
< 800m
< 200 ft
Symbols :   Thunderstorms  Fog  Heavy snow  Heavy precipitations  Wind > 20 kt
SIGMETs :     Misc.  Thunderstorms  Icing  Turbulence  Mountain Waves  Volcanic Ashes







- Airport Elevation : 202 ft
- IATA code : LGW
- Download approach charts


EGKK - London Gatwick

CURRENT METAR :
  • 200650Z VRB05KT 8000 NSC 13/11 Q1012

EXPIRED METARs :
  • 200620Z VRB03KT 8000 NSC 13/11 Q1011
  • 200550Z 32005KT 250V010 5000 HZ NSC 13/11 Q1011
  • 200520Z 33004KT 260V010 4500 HZ NSC 12/11 Q1011
  • 200450Z VRB03KT 5000 HZ NSC 12/11 Q1011
  • 200420Z 33003KT 5000 HZ NSC 12/10 Q1011

TAF TAF EGKK
Valid from the 20 at 06:00 until the 21 at 12:00 UTC


200456Z 2006/2112 VRB03KT 7000 SCT030
BECMG 2006/2009 9999
PROB30
TEMPO 2006/2008 4000 HZ BKN006
PROB30
TEMPO 2012/2019 7000 SHRA
PROB40 2100/2105 8000
No reported NOTAMs for that airfield.
1 SIGMET reported for the London FIR (EGTT) :
 
Embedded thunderstorms
EGTT SIGMET 01 VALID 200445/200845 EGRR
EGTT LONDON FIR EMBD TS FCST WI N5451 E00452 - N5348 E00359 - N5348 E00259 - N5500 E00227 - N5500 E00451 - N5451 E00452 TOP FL280 MOV NNW 15KT NC=



MET'MAP, your aeronautical weather chart ! - Copyright ORBIFLY December 2007 - Disclaimer

ORBIFLY MET'MAP TEAM :

Programming & Development : Alexandra Zaïnal
Concept & Development : Baudouin d'Aumeries
Co-Development & Prog : Marc-Olivier Méhu
Technical & hardware support : Manuel Goepfert

Contact : metmap@orbifly.com




SOURCES & CREDITS :

   NOAA